createdAt,value
2018-07-17T00:01:32.568Z,87.10
2018-07-17T00:04:01.230Z,87.60
2018-07-17T00:06:29.847Z,87.80
2018-07-17T00:08:58.458Z,88.00
2018-07-17T00:11:27.091Z,87.90
2018-07-17T00:13:55.712Z,87.70
2018-07-17T00:16:24.301Z,87.60
2018-07-17T00:18:52.924Z,87.30
2018-07-17T00:21:21.582Z,87.30
2018-07-17T00:23:50.156Z,87.90
2018-07-17T00:26:25.148Z,87.60
2018-07-17T00:28:53.957Z,87.70
2018-07-17T00:31:22.526Z,88.10
2018-07-17T00:33:51.045Z,88.80
2018-07-17T00:36:19.662Z,89.30
2018-07-17T00:38:48.284Z,88.90
2018-07-17T00:41:16.945Z,88.90
2018-07-17T00:43:45.567Z,88.40
2018-07-17T00:46:14.167Z,88.60
2018-07-17T00:48:42.811Z,88.20
2018-07-17T00:51:11.367Z,88.80
2018-07-17T00:53:40.025Z,88.90
2018-07-17T00:56:08.568Z,88.70
2018-07-17T00:58:37.212Z,88.50
2018-07-17T01:01:05.019Z,88.50
2018-07-17T01:03:38.879Z,89.20
2018-07-17T01:06:12.768Z,89.50
2018-07-17T01:08:46.748Z,89.60
2018-07-17T01:11:20.535Z,90.20
2018-07-17T01:13:53.526Z,90.40
2018-07-17T01:16:22.153Z,90.40
2018-07-17T01:18:50.769Z,90.30
2018-07-17T01:21:19.378Z,90.10
2018-07-17T01:23:48.052Z,90.20
2018-07-17T01:26:16.599Z,90.80
2018-07-17T01:28:45.294Z,90.60
2018-07-17T01:31:13.880Z,90.70
2018-07-17T01:33:42.512Z,90.70
2018-07-17T01:36:11.045Z,90.90
2018-07-17T01:38:39.664Z,91.10
2018-07-17T01:41:08.221Z,91.00
2018-07-17T01:43:36.889Z,91.00
2018-07-17T01:46:05.496Z,91.10
2018-07-17T01:48:34.074Z,91.50
2018-07-17T01:51:02.647Z,91.50
2018-07-17T01:53:37.656Z,91.30
2018-07-17T01:56:06.333Z,91.20
2018-07-17T01:58:35.066Z,91.20
2018-07-17T02:01:03.697Z,91.10
2018-07-17T02:03:32.323Z,91.30
2018-07-17T02:06:00.959Z,91.40
2018-07-17T02:08:29.678Z,91.60
2018-07-17T02:10:58.292Z,91.80
2018-07-17T02:13:26.959Z,91.80
2018-07-17T02:15:55.628Z,91.80
2018-07-17T02:18:24.274Z,91.70
2018-07-17T02:20:52.788Z,91.50
2018-07-17T02:23:21.430Z,91.40
2018-07-17T02:25:50.017Z,91.10
2018-07-17T02:28:18.630Z,91.40
2018-07-17T02:30:47.348Z,91.80
2018-07-17T02:33:15.885Z,91.90
2018-07-17T02:35:44.449Z,92.30
2018-07-17T02:38:13.023Z,92.20
2018-07-17T02:40:41.636Z,92.00
2018-07-17T02:43:10.194Z,92.00
2018-07-17T02:45:38.734Z,92.00
2018-07-17T02:48:07.293Z,92.20
2018-07-17T02:50:35.880Z,92.30
2018-07-17T02:53:04.535Z,92.20
2018-07-17T02:55:33.132Z,92.20
2018-07-17T02:58:01.818Z,92.20
2018-07-17T03:00:30.416Z,91.90
2018-07-17T03:02:59.064Z,91.70
2018-07-17T03:05:27.650Z,91.90
2018-07-17T03:07:56.250Z,92.20
2018-07-17T03:10:24.932Z,92.30
2018-07-17T03:12:53.606Z,92.50
2018-07-17T03:15:22.201Z,92.50
2018-07-17T03:17:50.820Z,92.70
2018-07-17T03:20:19.402Z,92.80
2018-07-17T03:22:48.005Z,93.00
2018-07-17T03:25:16.624Z,93.00
2018-07-17T03:27:45.212Z,93.20
2018-07-17T03:30:13.806Z,93.30
2018-07-17T03:32:42.339Z,93.30
2018-07-17T03:35:11.376Z,93.50
2018-07-17T03:37:39.984Z,93.30
2018-07-17T03:40:08.652Z,93.50
2018-07-17T03:42:37.258Z,93.40
2018-07-17T03:45:05.898Z,93.30
2018-07-17T03:47:34.442Z,93.30
2018-07-17T03:50:03.082Z,93.40
2018-07-17T03:52:31.757Z,93.40
2018-07-17T03:55:00.431Z,93.40
2018-07-17T03:57:29.123Z,93.40
2018-07-17T03:59:57.706Z,93.30
2018-07-17T04:02:26.280Z,93.30
2018-07-17T04:04:54.858Z,93.40
2018-07-17T04:07:23.405Z,93.50
2018-07-17T04:09:52.062Z,93.30
2018-07-17T04:12:20.741Z,93.10
2018-07-17T04:14:49.357Z,92.90
2018-07-17T04:17:17.906Z,92.50
2018-07-17T04:19:46.550Z,92.40
2018-07-17T04:22:15.164Z,92.40
2018-07-17T04:24:43.780Z,92.60
2018-07-17T04:27:12.385Z,92.60
2018-07-17T04:29:41.060Z,92.60
2018-07-17T04:32:09.700Z,92.70
2018-07-17T04:34:38.236Z,92.90
2018-07-17T04:37:07.000Z,92.70
2018-07-17T04:45:39.892Z,92.50
2018-07-17T04:48:08.487Z,92.50
2018-07-17T04:50:37.017Z,92.40
2018-07-17T04:53:05.732Z,92.40
2018-07-17T04:55:34.279Z,92.60
2018-07-17T04:58:02.889Z,92.60
2018-07-17T05:00:31.563Z,92.40
2018-07-17T05:03:00.206Z,92.30
2018-07-17T05:05:28.830Z,92.00
2018-07-17T05:07:57.498Z,91.90
2018-07-17T05:10:26.098Z,91.80
2018-07-17T05:12:54.891Z,91.70
2018-07-17T05:15:23.597Z,91.70
2018-07-17T05:17:52.258Z,91.60
2018-07-17T05:20:20.960Z,91.30
2018-07-17T05:22:51.691Z,90.90
2018-07-17T05:25:20.140Z,90.70
2018-07-17T05:27:48.821Z,90.30
2018-07-17T05:30:17.481Z,90.20
2018-07-17T05:32:45.994Z,90.40
2018-07-17T05:35:14.681Z,90.30
2018-07-17T05:37:43.265Z,90.10
2018-07-17T05:40:11.935Z,89.80
2018-07-17T05:42:40.555Z,89.60
2018-07-17T05:45:09.160Z,90.10
2018-07-17T05:47:41.046Z,89.70
2018-07-17T05:50:10.921Z,88.90
2018-07-17T05:52:39.688Z,88.50
2018-07-17T05:55:08.354Z,88.20
2018-07-17T05:57:37.033Z,88.20
2018-07-17T06:00:06.724Z,88.20
2018-07-17T06:02:35.323Z,88.00
2018-07-17T06:05:03.973Z,87.90
2018-07-17T06:07:32.578Z,87.70
2018-07-17T06:10:01.210Z,87.60
2018-07-17T06:12:29.848Z,87.20
2018-07-17T06:14:58.424Z,86.60
2018-07-17T06:17:27.006Z,86.20
2018-07-17T06:19:55.572Z,85.70
2018-07-17T06:22:24.152Z,85.30
2018-07-17T06:24:52.750Z,85.00
2018-07-17T06:27:21.372Z,84.40
2018-07-17T06:29:50.016Z,83.70
2018-07-17T06:32:18.604Z,83.20
2018-07-17T06:34:47.194Z,83.20
2018-07-17T06:37:15.800Z,83.10
2018-07-17T06:39:44.446Z,83.40
2018-07-17T06:42:13.081Z,83.20
2018-07-17T06:44:48.080Z,82.90
2018-07-17T06:47:16.670Z,82.10
2018-07-17T06:49:45.349Z,81.90
2018-07-17T06:52:14.297Z,81.70
2018-07-17T06:54:42.813Z,81.40
2018-07-17T06:57:11.364Z,81.30
2018-07-17T06:59:40.075Z,81.30
2018-07-17T07:02:08.680Z,80.90
2018-07-17T07:04:37.306Z,80.70
2018-07-17T07:07:05.859Z,80.00
2018-07-17T07:09:34.714Z,78.90
2018-07-17T07:12:03.583Z,78.20
2018-07-17T07:14:32.130Z,77.80
2018-07-17T07:17:01.262Z,77.90
2018-07-17T07:19:29.948Z,76.90
2018-07-17T07:21:58.542Z,76.00
2018-07-17T07:24:27.201Z,74.50
2018-07-17T07:26:56.309Z,74.00
2018-07-17T07:29:25.486Z,72.40
2018-07-17T07:31:54.413Z,73.20
2018-07-17T07:34:23.082Z,69.80
2018-07-17T07:36:51.708Z,69.70
2018-07-17T07:39:20.310Z,68.80
2018-07-17T07:44:48.428Z,69.10
2018-07-17T07:47:16.996Z,66.60
2018-07-17T07:49:45.585Z,66.60
2018-07-17T07:52:14.201Z,66.80
2018-07-17T07:54:42.792Z,66.40
2018-07-17T07:57:11.388Z,66.70
2018-07-17T07:59:39.936Z,65.20
2018-07-17T08:02:08.475Z,65.00
2018-07-17T08:04:37.031Z,64.40
2018-07-17T08:07:05.633Z,64.50
2018-07-17T08:09:34.206Z,65.20
2018-07-17T08:12:02.913Z,65.20
2018-07-17T08:14:31.558Z,65.50
2018-07-17T08:17:00.208Z,63.90
2018-07-17T08:19:28.764Z,64.30
2018-07-17T08:21:57.418Z,63.00
2018-07-17T08:24:26.024Z,63.70
2018-07-17T08:26:54.598Z,62.50
2018-07-17T08:29:23.307Z,62.70
2018-07-17T08:31:51.932Z,62.50
2018-07-17T08:34:20.648Z,63.40
2018-07-17T08:36:49.242Z,63.40
2018-07-17T08:39:17.813Z,63.00
2018-07-17T08:44:40.400Z,63.50
2018-07-17T08:47:08.963Z,62.90
2018-07-17T08:49:37.583Z,63.60
2018-07-17T08:52:06.190Z,62.60
2018-07-17T08:54:34.770Z,62.10
2018-07-17T08:59:55.924Z,61.40
2018-07-17T09:02:24.445Z,61.50
2018-07-17T09:04:53.028Z,60.60
2018-07-17T09:07:21.561Z,62.80
2018-07-17T09:12:49.268Z,60.50
2018-07-17T09:15:17.891Z,60.90
2018-07-17T09:17:46.496Z,61.00
2018-07-17T09:20:14.999Z,61.70
2018-07-17T09:22:43.561Z,60.80
2018-07-17T09:25:12.088Z,59.90
2018-07-17T09:27:40.653Z,59.60
2018-07-17T09:30:09.234Z,60.00
2018-07-17T09:32:37.780Z,59.60
2018-07-17T09:35:06.555Z,59.20
2018-07-17T09:37:35.487Z,60.30
2018-07-17T09:40:04.599Z,60.60
2018-07-17T09:42:33.683Z,60.20
2018-07-17T09:45:02.299Z,58.70
2018-07-17T09:47:30.938Z,59.70
2018-07-17T09:49:59.424Z,59.40
2018-07-17T09:52:27.980Z,60.00
2018-07-17T09:54:56.568Z,59.80
2018-07-17T09:57:25.197Z,59.20
2018-07-17T09:59:53.781Z,58.20
2018-07-17T10:02:30.684Z,58.40
2018-07-17T10:05:00.093Z,59.70
2018-07-17T10:07:28.720Z,59.30
2018-07-17T10:09:57.270Z,58.80
2018-07-17T10:12:26.158Z,58.00
2018-07-17T10:14:54.788Z,59.80
2018-07-17T10:17:23.373Z,60.00
2018-07-17T10:19:51.949Z,57.90
2018-07-17T10:22:20.498Z,58.90
2018-07-17T10:24:49.112Z,59.40
2018-07-17T10:27:17.672Z,56.70
2018-07-17T10:30:04.288Z,58.40
2018-07-17T10:32:32.841Z,56.50
2018-07-17T10:35:01.492Z,56.30
2018-07-17T10:37:30.015Z,56.60
2018-07-17T10:39:58.809Z,56.40
2018-07-17T10:42:27.549Z,54.20
2018-07-17T10:44:56.092Z,54.50
2018-07-17T10:47:26.579Z,54.80
2018-07-17T10:49:55.222Z,55.00
2018-07-17T10:52:23.812Z,54.60
2018-07-17T10:54:52.352Z,55.20
2018-07-17T10:57:20.954Z,54.50
2018-07-17T10:59:49.508Z,54.10
2018-07-17T11:02:18.009Z,54.60
2018-07-17T11:04:46.553Z,54.40
2018-07-17T11:07:19.740Z,54.50
2018-07-17T11:09:48.395Z,54.50
2018-07-17T11:12:17.023Z,54.30
2018-07-17T11:14:45.590Z,54.80
2018-07-17T11:17:15.285Z,53.40
2018-07-17T11:19:43.824Z,55.20
2018-07-17T11:22:12.440Z,55.20
2018-07-17T11:24:40.970Z,55.10
2018-07-17T11:27:09.561Z,54.30
2018-07-17T11:29:38.092Z,53.10
2018-07-17T11:32:06.817Z,53.30
2018-07-17T11:34:35.448Z,53.40
2018-07-17T11:37:04.046Z,53.80
2018-07-17T11:39:32.965Z,53.70
2018-07-17T11:42:01.717Z,52.90
2018-07-17T11:44:32.592Z,54.30
2018-07-17T11:47:01.164Z,53.00
2018-07-17T11:49:29.778Z,51.40
2018-07-17T11:51:59.406Z,51.90
2018-07-17T11:54:28.024Z,51.00
2018-07-17T11:56:56.669Z,51.30
2018-07-17T11:59:25.467Z,51.40
2018-07-17T12:01:53.901Z,49.40
2018-07-17T12:04:29.360Z,51.20
2018-07-17T12:07:08.562Z,51.90
2018-07-17T12:09:37.225Z,52.40
2018-07-17T12:12:06.954Z,50.30
2018-07-17T12:14:35.803Z,51.50
2018-07-17T12:17:04.895Z,52.60
2018-07-17T12:19:34.316Z,52.50
2018-07-17T12:22:03.643Z,52.50
2018-07-17T12:24:34.425Z,54.40
2018-07-17T12:27:03.144Z,52.70
2018-07-17T12:29:31.916Z,51.90
2018-07-17T12:32:01.919Z,50.80
2018-07-17T12:34:30.822Z,52.20
2018-07-17T12:36:59.531Z,53.60
2018-07-17T12:39:28.282Z,52.90
2018-07-17T12:41:57.044Z,52.00
2018-07-17T12:44:25.722Z,50.50
2018-07-17T12:46:58.365Z,51.90
2018-07-17T12:49:26.917Z,50.60
2018-07-17T12:51:55.701Z,51.60
2018-07-17T12:54:24.296Z,50.50
2018-07-17T12:56:52.999Z,48.30
2018-07-17T12:59:21.653Z,47.80
2018-07-17T13:01:54.837Z,48.90
2018-07-17T13:04:23.442Z,50.60
2018-07-17T13:06:51.965Z,48.90
2018-07-17T13:09:20.547Z,48.30
2018-07-17T13:11:49.103Z,49.10
2018-07-17T13:14:17.668Z,48.20
2018-07-17T13:16:46.225Z,49.30
2018-07-17T13:19:14.767Z,47.10
2018-07-17T13:21:43.394Z,47.60
2018-07-17T13:24:11.977Z,49.80
2018-07-17T13:26:40.599Z,51.80
2018-07-17T13:29:09.156Z,53.10
2018-07-17T13:31:37.766Z,53.60
2018-07-17T13:34:06.431Z,54.50
2018-07-17T13:36:35.031Z,54.90
2018-07-17T13:39:03.715Z,54.80
2018-07-17T13:41:32.324Z,56.70
2018-07-17T13:44:00.861Z,58.00
2018-07-17T13:46:29.493Z,59.80
2018-07-17T13:48:58.368Z,60.90
2018-07-17T13:51:27.019Z,62.90
2018-07-17T13:53:55.716Z,64.10
2018-07-17T13:56:24.373Z,65.70
2018-07-17T13:58:53.072Z,67.90
2018-07-17T14:01:21.650Z,70.50
2018-07-17T14:03:50.433Z,72.20
2018-07-17T14:06:19.200Z,71.10
2018-07-17T14:08:48.312Z,71.70
2018-07-17T14:11:17.544Z,67.30
2018-07-17T14:13:48.232Z,66.30
2018-07-17T14:16:16.962Z,66.30
2018-07-17T14:18:46.897Z,67.20
2018-07-17T14:21:15.545Z,63.20
2018-07-17T14:23:44.171Z,58.90
2018-07-17T14:26:12.839Z,58.10
2018-07-17T14:28:41.378Z,56.60
2018-07-17T14:31:10.762Z,56.30
2018-07-17T14:33:39.702Z,53.80
2018-07-17T14:36:08.570Z,54.50
2018-07-17T14:38:38.837Z,53.10
2018-07-17T14:47:07.424Z,53.90
2018-07-17T14:49:37.589Z,51.00
2018-07-17T14:52:08.230Z,51.20
2018-07-17T14:54:36.863Z,50.40
2018-07-17T14:57:06.347Z,50.70
2018-07-17T14:59:35.760Z,52.50
2018-07-17T15:02:04.354Z,54.10
2018-07-17T15:04:32.968Z,51.30
2018-07-17T15:07:01.514Z,49.00
2018-07-17T15:09:30.078Z,47.70
2018-07-17T15:11:58.545Z,48.30
2018-07-17T15:14:27.206Z,48.00
2018-07-17T15:16:55.782Z,47.70
2018-07-17T15:19:24.373Z,47.90
2018-07-17T15:21:52.912Z,46.50
2018-07-17T15:24:21.452Z,47.10
2018-07-17T15:26:49.978Z,45.90
2018-07-17T15:29:18.655Z,46.40
2018-07-17T15:31:49.584Z,47.10
2018-07-17T15:34:18.298Z,45.50
2018-07-17T15:36:47.216Z,44.80
2018-07-17T15:39:15.737Z,44.80
2018-07-17T15:41:44.539Z,45.20
2018-07-17T15:44:13.187Z,45.20
2018-07-17T15:46:41.812Z,45.20
2018-07-17T15:49:10.411Z,46.10
2018-07-17T15:51:44.949Z,43.60
2018-07-17T15:54:14.516Z,43.70
2018-07-17T15:56:43.106Z,44.20
2018-07-17T16:02:09.236Z,42.00
2018-07-17T16:04:37.774Z,43.00
2018-07-17T16:07:06.308Z,41.70
2018-07-17T16:09:34.978Z,44.80
2018-07-17T16:12:03.551Z,43.10
2018-07-17T16:14:32.185Z,40.50
2018-07-17T16:17:00.660Z,40.80
2018-07-17T16:19:29.254Z,41.70
2018-07-17T16:21:57.846Z,41.80
2018-07-17T16:24:26.461Z,41.10
2018-07-17T16:26:55.057Z,41.40
2018-07-17T16:29:23.618Z,41.80
2018-07-17T16:31:53.281Z,43.50
2018-07-17T16:34:21.905Z,43.10
2018-07-17T16:36:50.562Z,43.60
2018-07-17T16:39:19.062Z,44.30
2018-07-17T16:41:47.714Z,45.70
2018-07-17T16:44:16.242Z,46.50
2018-07-17T16:46:44.839Z,45.50
2018-07-17T16:49:13.407Z,44.30
2018-07-17T16:51:42.010Z,43.20
2018-07-17T16:54:10.662Z,44.20
2018-07-17T16:56:39.266Z,45.00
2018-07-17T16:59:07.852Z,43.80
2018-07-17T17:01:36.367Z,43.80
2018-07-17T17:04:04.969Z,44.70
2018-07-17T17:06:33.645Z,44.40
2018-07-17T17:09:02.366Z,42.90
2018-07-17T17:11:30.816Z,44.60
2018-07-17T17:13:59.345Z,44.70
2018-07-17T17:16:28.169Z,44.00
2018-07-17T17:18:56.770Z,42.90
2018-07-17T17:21:25.283Z,43.20
2018-07-17T17:23:53.901Z,44.20
2018-07-17T17:26:22.436Z,45.50
2018-07-17T17:28:50.898Z,46.20
2018-07-17T17:31:19.681Z,47.70
2018-07-17T17:33:48.226Z,47.30
2018-07-17T17:36:16.882Z,47.40
2018-07-17T17:38:45.424Z,48.50
2018-07-17T17:41:14.614Z,49.00
2018-07-17T17:43:43.112Z,48.50
2018-07-17T17:46:11.672Z,48.50
2018-07-17T17:48:40.406Z,48.30
2018-07-17T17:51:09.112Z,48.30
2018-07-17T17:53:37.648Z,48.50
2018-07-17T17:56:06.822Z,49.00
2018-07-17T17:58:36.845Z,50.80
2018-07-17T18:01:06.158Z,49.80
2018-07-17T18:06:28.393Z,50.70
2018-07-17T18:08:56.940Z,52.10
2018-07-17T18:11:25.596Z,52.40
2018-07-17T18:13:54.775Z,54.20
2018-07-17T18:16:24.005Z,56.30
2018-07-17T18:18:53.860Z,56.70
2018-07-17T18:21:22.595Z,58.60
2018-07-17T18:23:51.202Z,59.10
2018-07-17T18:26:19.898Z,60.20
2018-07-17T18:28:48.514Z,60.20
2018-07-17T18:31:17.109Z,61.00
2018-07-17T18:34:01.622Z,61.10
2018-07-17T18:36:31.036Z,60.80
2018-07-17T18:38:59.822Z,61.90
2018-07-17T18:41:30.074Z,61.70
2018-07-17T18:43:59.891Z,62.60
2018-07-17T18:46:28.488Z,63.00
2018-07-17T18:48:57.285Z,63.40
2018-07-17T18:51:25.923Z,63.70
2018-07-17T18:54:00.954Z,63.80
2018-07-17T18:56:29.978Z,64.10
2018-07-17T18:58:58.574Z,64.30
2018-07-17T19:01:27.168Z,64.50
2018-07-17T19:03:55.757Z,64.40
2018-07-17T19:06:24.423Z,64.60
2018-07-17T19:08:55.710Z,64.90
2018-07-17T19:11:24.452Z,65.00
2018-07-17T19:13:53.044Z,64.80
2018-07-17T19:16:21.746Z,65.80
2018-07-17T19:18:50.296Z,65.40
2018-07-17T19:21:18.931Z,65.90
2018-07-17T19:23:47.768Z,65.50
2018-07-17T19:26:16.520Z,65.60
2018-07-17T19:28:45.242Z,65.90
2018-07-17T19:31:13.865Z,66.40
2018-07-17T19:33:42.541Z,67.20
2018-07-17T19:36:11.161Z,67.90
2018-07-17T19:38:40.628Z,68.20
2018-07-17T19:41:09.340Z,68.60
2018-07-17T19:43:37.987Z,68.70
2018-07-17T19:46:07.477Z,68.70
2018-07-17T19:48:38.918Z,69.10
2018-07-17T19:51:08.943Z,68.80
2018-07-17T19:53:45.803Z,68.90
2018-07-17T19:56:14.372Z,69.40
2018-07-17T19:58:44.702Z,69.60
2018-07-17T20:01:13.366Z,70.00
2018-07-17T20:03:42.706Z,70.80
2018-07-17T20:06:12.382Z,70.80
2018-07-17T20:08:41.079Z,71.70
2018-07-17T20:11:10.103Z,72.30
2018-07-17T20:13:38.892Z,71.20
2018-07-17T20:16:07.428Z,71.00
2018-07-17T20:18:36.371Z,71.10
2018-07-17T20:21:04.990Z,70.50
2018-07-17T20:23:33.649Z,70.80
2018-07-17T20:26:02.250Z,70.20
2018-07-17T20:28:30.828Z,70.60
2018-07-17T20:31:00.131Z,71.70
2018-07-17T20:33:28.770Z,71.10
2018-07-17T20:35:57.414Z,73.00
2018-07-17T20:38:26.011Z,73.60
2018-07-17T20:40:54.702Z,73.90
2018-07-17T20:43:23.196Z,74.20
2018-07-17T20:45:51.821Z,75.40
2018-07-17T20:48:20.352Z,76.70
2018-07-17T20:53:41.923Z,78.20
2018-07-17T20:56:10.482Z,78.40
2018-07-17T20:58:39.140Z,79.20
2018-07-17T21:01:07.748Z,79.80
2018-07-17T21:03:36.290Z,79.90
2018-07-17T21:06:04.904Z,79.60
2018-07-17T21:08:33.512Z,80.70
2018-07-17T21:11:02.135Z,81.60
2018-07-17T21:13:30.670Z,82.10
2018-07-17T21:15:59.224Z,83.80
2018-07-17T21:18:27.834Z,83.20
2018-07-17T21:20:56.472Z,82.50
2018-07-17T21:23:31.414Z,82.30
2018-07-17T21:26:00.107Z,82.10
2018-07-17T21:28:28.690Z,81.50
2018-07-17T21:30:57.259Z,82.20
2018-07-17T21:33:25.909Z,82.20
2018-07-17T21:35:54.596Z,82.10
2018-07-17T21:38:23.090Z,82.10
2018-07-17T21:40:52.763Z,82.70
2018-07-17T21:43:21.375Z,83.40
2018-07-17T21:51:41.725Z,84.30
2018-07-17T21:54:10.305Z,84.40
2018-07-17T21:56:38.966Z,84.30
2018-07-17T21:59:07.554Z,84.50
2018-07-17T22:01:36.207Z,84.30
2018-07-17T22:04:04.814Z,84.50
2018-07-17T22:06:33.427Z,85.30
2018-07-17T22:09:02.035Z,85.80
2018-07-17T22:11:30.685Z,86.40
2018-07-17T22:13:59.531Z,86.60
2018-07-17T22:16:28.162Z,86.70
2018-07-17T22:18:56.733Z,86.90
2018-07-17T22:21:25.364Z,87.30
2018-07-17T22:23:54.111Z,87.10
2018-07-17T22:26:22.668Z,87.00
2018-07-17T22:28:51.258Z,87.00
2018-07-17T22:31:19.967Z,87.00
2018-07-17T22:33:48.822Z,87.10
2018-07-17T22:36:17.539Z,87.40
2018-07-17T22:38:46.144Z,87.60
2018-07-17T22:41:14.748Z,87.80
2018-07-17T22:43:43.376Z,87.40
2018-07-17T22:46:11.963Z,87.70
2018-07-17T22:48:40.672Z,88.00
2018-07-17T22:51:09.271Z,88.40
2018-07-17T22:53:37.862Z,88.30
2018-07-17T22:56:06.497Z,88.30
2018-07-17T22:58:35.106Z,88.10
2018-07-17T23:01:03.733Z,88.20
2018-07-17T23:03:32.292Z,87.60
2018-07-17T23:06:00.845Z,87.80
2018-07-17T23:08:29.458Z,87.80
2018-07-17T23:10:58.068Z,88.10
2018-07-17T23:13:26.685Z,88.40
2018-07-17T23:15:55.352Z,88.10
2018-07-17T23:18:23.857Z,88.10
2018-07-17T23:20:52.406Z,87.70
2018-07-17T23:23:20.949Z,87.60
2018-07-17T23:25:49.540Z,87.40
2018-07-17T23:28:18.153Z,87.30
2018-07-17T23:30:46.865Z,87.30
2018-07-17T23:33:15.450Z,87.30
2018-07-17T23:35:44.032Z,87.20
2018-07-17T23:38:12.676Z,87.60
2018-07-17T23:40:41.177Z,88.40
2018-07-17T23:43:09.774Z,87.90
2018-07-17T23:45:38.337Z,88.00
2018-07-17T23:48:06.961Z,88.10
2018-07-17T23:50:35.529Z,88.60
2018-07-17T23:53:04.118Z,88.20
2018-07-17T23:55:32.746Z,88.30
2018-07-17T23:58:01.466Z,88.20
